createdAt,value
2022-09-26T00:00:23.781Z,50.849495
2022-09-26T00:01:23.287Z,50.849468
2022-09-26T00:02:23.332Z,50.849468
2022-09-26T00:03:23.139Z,50.849480
2022-09-26T00:04:24.629Z,50.849483
2022-09-26T00:05:23.129Z,50.849483
2022-09-26T00:06:23.114Z,50.849476
2022-09-26T00:07:23.181Z,50.849472
2022-09-26T00:08:23.148Z,50.849491
2022-09-26T00:09:23.089Z,50.849468
2022-09-26T00:10:23.081Z,50.849480
2022-09-26T00:11:23.088Z,50.849487
2022-09-26T00:12:23.068Z,50.849480
2022-09-26T00:13:23.062Z,50.849495
2022-09-26T00:14:23.031Z,50.849495
2022-09-26T00:15:23.026Z,50.849506
2022-09-26T00:16:23.164Z,50.849503
2022-09-26T00:17:23.081Z,50.849503
2022-09-26T00:18:23.003Z,50.849495
2022-09-26T00:19:23.039Z,50.849495
2022-09-26T00:20:22.998Z,50.849499
2022-09-26T00:21:22.984Z,50.849503
2022-09-26T00:22:22.974Z,50.849503
2022-09-26T00:23:22.953Z,50.849495
2022-09-26T00:24:22.952Z,50.849499
2022-09-26T00:25:22.953Z,50.849487
2022-09-26T00:26:22.942Z,50.849491
2022-09-26T00:27:22.964Z,50.849476
2022-09-26T00:28:22.918Z,50.849495
2022-09-26T00:29:22.907Z,50.849495
2022-09-26T00:30:22.957Z,50.849495
2022-09-26T00:31:23.024Z,50.849491
2022-09-26T00:32:22.880Z,50.849495
2022-09-26T00:33:22.900Z,50.849537
2022-09-26T00:34:22.863Z,50.849537
2022-09-26T00:35:22.856Z,50.849518
2022-09-26T00:36:29.763Z,50.849495
2022-09-26T00:37:23.843Z,50.849503
2022-09-26T00:38:22.828Z,50.849476
2022-09-26T00:39:22.819Z,50.849491
2022-09-26T00:40:22.830Z,50.849499
2022-09-26T00:41:22.799Z,50.849518
2022-09-26T00:42:22.822Z,50.849503
2022-09-26T00:43:22.800Z,50.849514
2022-09-26T00:44:22.780Z,50.849491
2022-09-26T00:45:22.771Z,50.849506
2022-09-26T00:46:22.814Z,50.849510
2022-09-26T00:47:22.852Z,50.849510
2022-09-26T00:48:22.769Z,50.849510
2022-09-26T00:49:22.735Z,50.849491
2022-09-26T00:50:22.723Z,50.849518
2022-09-26T00:51:22.712Z,50.849518
2022-09-26T00:52:22.716Z,50.849506
2022-09-26T00:53:22.718Z,50.849522
2022-09-26T00:54:22.764Z,50.849518
2022-09-26T00:55:22.676Z,50.849491
2022-09-26T00:56:22.673Z,50.849495
2022-09-26T00:57:22.661Z,50.849510
2022-09-26T00:58:22.663Z,50.849514
2022-09-26T00:59:22.667Z,50.849506
2022-09-26T01:00:22.665Z,50.849510
2022-09-26T01:01:22.730Z,50.849487
2022-09-26T01:02:22.716Z,50.849510
2022-09-26T01:03:22.611Z,50.849483
2022-09-26T01:04:22.628Z,50.849503
2022-09-26T01:05:22.601Z,50.849514
2022-09-26T01:06:22.615Z,50.849552
2022-09-26T01:07:22.573Z,50.849506
2022-09-26T01:08:22.559Z,50.849495
2022-09-26T01:09:22.559Z,50.849529
2022-09-26T01:10:22.537Z,50.849503
2022-09-26T01:11:22.567Z,50.849503
2022-09-26T01:12:22.523Z,50.849518
2022-09-26T01:13:22.520Z,50.849506
2022-09-26T01:14:22.509Z,50.849499
2022-09-26T01:15:22.510Z,50.849472
2022-09-26T01:16:22.575Z,50.849483
2022-09-26T01:17:22.514Z,50.849506
2022-09-26T01:18:22.507Z,50.849522
2022-09-26T01:19:22.492Z,50.849518
2022-09-26T01:20:22.465Z,50.849537
2022-09-26T01:21:22.456Z,50.849529
2022-09-26T01:22:22.444Z,50.849514
2022-09-26T01:23:22.462Z,50.849529
2022-09-26T01:24:22.424Z,50.849514
2022-09-26T01:25:22.416Z,50.849529
2022-09-26T01:26:22.407Z,50.849529
2022-09-26T01:27:22.404Z,50.849533
2022-09-26T01:28:22.395Z,50.849545
2022-09-26T01:29:22.857Z,50.849533
2022-09-26T01:30:22.384Z,50.849503
2022-09-26T01:31:22.444Z,50.849510
2022-09-26T01:32:22.378Z,50.849529
2022-09-26T01:33:22.346Z,50.849541
2022-09-26T01:34:22.331Z,50.849537
2022-09-26T01:35:22.348Z,50.849525
2022-09-26T01:36:22.314Z,50.849529
2022-09-26T01:37:22.326Z,50.849529
2022-09-26T01:38:22.381Z,50.849529
2022-09-26T01:39:22.293Z,50.849522
2022-09-26T01:40:22.411Z,50.849518
2022-09-26T01:41:22.297Z,50.849518
2022-09-26T01:42:22.278Z,50.849537
2022-09-26T01:43:22.308Z,50.849529
2022-09-26T01:44:22.253Z,50.849537
2022-09-26T01:45:22.260Z,50.849545
2022-09-26T01:46:22.293Z,50.849545
2022-09-26T01:47:22.253Z,50.849552
2022-09-26T01:48:22.209Z,50.849556
2022-09-26T01:49:22.213Z,50.849556
2022-09-26T01:50:22.294Z,50.849571
2022-09-26T01:51:22.184Z,50.849564
2022-09-26T01:52:22.210Z,50.849541
2022-09-26T01:53:22.183Z,50.849552
2022-09-26T01:54:22.181Z,50.849567
2022-09-26T01:55:22.160Z,50.849548
2022-09-26T01:56:22.139Z,50.849541
2022-09-26T01:57:22.167Z,50.849518
2022-09-26T01:58:22.129Z,50.849545
2022-09-26T01:59:22.120Z,50.849537
2022-09-26T02:00:22.146Z,50.849522
2022-09-26T02:01:22.189Z,50.849533
2022-09-26T02:02:22.215Z,50.849548
2022-09-26T02:03:22.089Z,50.849548
2022-09-26T02:04:22.096Z,50.849552
2022-09-26T02:05:22.096Z,50.849560
2022-09-26T02:06:22.079Z,50.849560
2022-09-26T02:07:22.067Z,50.849545
2022-09-26T02:08:22.045Z,50.849548
2022-09-26T02:09:22.040Z,50.849529
2022-09-26T02:10:22.032Z,50.849560
2022-09-26T02:11:22.046Z,50.849556
2022-09-26T02:12:22.032Z,50.849556
2022-09-26T02:13:22.014Z,50.849491
2022-09-26T02:14:22.005Z,50.849499
2022-09-26T02:15:21.993Z,50.849529
2022-09-26T02:16:22.076Z,50.849537
2022-09-26T02:17:21.983Z,50.849560
2022-09-26T02:18:21.959Z,50.849541
2022-09-26T02:19:21.954Z,50.849529
2022-09-26T02:20:21.933Z,50.849533
2022-09-26T02:21:21.925Z,50.849495
2022-09-26T02:22:21.955Z,50.849529
2022-09-26T02:23:21.905Z,50.849533
2022-09-26T02:24:21.898Z,50.849495
2022-09-26T02:25:21.887Z,50.849506
2022-09-26T02:26:21.875Z,50.849510
2022-09-26T02:27:21.883Z,50.849518
2022-09-26T02:28:21.912Z,50.849483
2022-09-26T02:29:21.868Z,50.849514
2022-09-26T02:30:21.859Z,50.849514
2022-09-26T02:31:21.890Z,50.849495
2022-09-26T02:32:21.822Z,50.849552
2022-09-26T02:33:21.840Z,50.849533
2022-09-26T02:34:21.843Z,50.849522
2022-09-26T02:35:21.810Z,50.849533
2022-09-26T02:36:21.816Z,50.849525
2022-09-26T02:37:21.807Z,50.849548
2022-09-26T02:38:21.813Z,50.849548
2022-09-26T02:39:21.828Z,50.849545
2022-09-26T02:40:21.809Z,50.849564
2022-09-26T02:41:21.762Z,50.849545
2022-09-26T02:42:21.750Z,50.849545
2022-09-26T02:43:21.731Z,50.849503
2022-09-26T02:44:21.743Z,50.849525
2022-09-26T02:45:21.750Z,50.849514
2022-09-26T02:46:21.789Z,50.849510
2022-09-26T02:47:21.696Z,50.849541
2022-09-26T02:48:21.725Z,50.849525
2022-09-26T02:49:21.678Z,50.849537
2022-09-26T02:50:21.695Z,50.849522
2022-09-26T02:51:22.337Z,50.849545
2022-09-26T02:52:21.754Z,50.849525
2022-09-26T02:53:21.647Z,50.849522
2022-09-26T02:54:21.655Z,50.849518
2022-09-26T02:55:21.649Z,50.849525
2022-09-26T02:56:21.651Z,50.849518
2022-09-26T02:57:21.623Z,50.849537
2022-09-26T02:58:21.610Z,50.849537
2022-09-26T02:59:21.604Z,50.849533
2022-09-26T03:00:21.594Z,50.849533
2022-09-26T03:01:21.655Z,50.849525
2022-09-26T03:02:21.594Z,50.849522
2022-09-26T03:03:21.674Z,50.849529
2022-09-26T03:04:21.620Z,50.849518
2022-09-26T03:05:21.559Z,50.849522
2022-09-26T03:06:21.562Z,50.849514
2022-09-26T03:07:21.538Z,50.849525
2022-09-26T03:08:21.550Z,50.849510
2022-09-26T03:09:21.524Z,50.849525
2022-09-26T03:10:21.515Z,50.849529
2022-09-26T03:11:21.510Z,50.849537
2022-09-26T03:12:21.504Z,50.849548
2022-09-26T03:13:21.504Z,50.849541
2022-09-26T03:14:21.573Z,50.849545
2022-09-26T03:15:21.465Z,50.849541
2022-09-26T03:16:21.517Z,50.849537
2022-09-26T03:17:21.452Z,50.849537
2022-09-26T03:18:21.445Z,50.849552
2022-09-26T03:19:21.445Z,50.849545
2022-09-26T03:20:21.451Z,50.849541
2022-09-26T03:21:21.428Z,50.849545
2022-09-26T03:22:21.425Z,50.849545
2022-09-26T03:23:21.423Z,50.849522
2022-09-26T03:24:21.401Z,50.849537
2022-09-26T03:25:21.398Z,50.849529
2022-09-26T03:26:21.854Z,50.849525
2022-09-26T03:27:21.384Z,50.849514
2022-09-26T03:28:21.369Z,50.849529
2022-09-26T03:29:21.353Z,50.849499
2022-09-26T03:30:21.355Z,50.849522
2022-09-26T03:31:21.410Z,50.849518
2022-09-26T03:32:21.325Z,50.849476
2022-09-26T03:33:21.329Z,50.849487
2022-09-26T03:34:21.321Z,50.849483
2022-09-26T03:35:21.311Z,50.849495
2022-09-26T03:36:21.311Z,50.849499
2022-09-26T03:37:21.357Z,50.849522
2022-09-26T03:38:21.317Z,50.849518
2022-09-26T03:39:21.284Z,50.849518
2022-09-26T03:40:21.305Z,50.849464
2022-09-26T03:41:21.255Z,50.849483
2022-09-26T03:42:21.246Z,50.849537
2022-09-26T03:43:21.261Z,50.849503
2022-09-26T03:44:21.229Z,50.849480
2022-09-26T03:45:21.293Z,50.849483
2022-09-26T03:46:21.223Z,50.849480
2022-09-26T03:47:21.219Z,50.849503
2022-09-26T03:48:21.201Z,50.849518
2022-09-26T03:49:21.216Z,50.849541
2022-09-26T03:50:21.187Z,50.849529
2022-09-26T03:51:21.183Z,50.849522
2022-09-26T03:52:21.173Z,50.849514
2022-09-26T03:53:21.159Z,50.849522
2022-09-26T03:54:21.144Z,50.849522
2022-09-26T03:55:21.152Z,50.849506
2022-09-26T03:56:21.128Z,50.849518
2022-09-26T03:57:21.124Z,50.849510
2022-09-26T03:58:21.129Z,50.849522
2022-09-26T03:59:21.108Z,50.849541
2022-09-26T04:00:21.099Z,50.849495
2022-09-26T04:01:21.222Z,50.849510
2022-09-26T04:02:21.206Z,50.849514
2022-09-26T04:03:21.083Z,50.849510
2022-09-26T04:04:21.072Z,50.849510
2022-09-26T04:05:21.063Z,50.849499
2022-09-26T04:06:21.218Z,50.849506
2022-09-26T04:07:21.067Z,50.849514
2022-09-26T04:08:21.042Z,50.849529
2022-09-26T04:09:21.250Z,50.849503
2022-09-26T04:10:21.028Z,50.849483
2022-09-26T04:11:21.004Z,50.849483
2022-09-26T04:12:21.000Z,50.849487
2022-09-26T04:13:49.450Z,50.849503
2022-09-26T04:14:21.976Z,50.849480
2022-09-26T04:15:20.977Z,50.849476
2022-09-26T04:16:21.050Z,50.849499
2022-09-26T04:17:21.241Z,50.849503
2022-09-26T04:18:20.954Z,50.849529
2022-09-26T04:19:20.985Z,50.849506
2022-09-26T04:20:20.950Z,50.849506
2022-09-26T04:21:20.944Z,50.849514
2022-09-26T04:22:20.961Z,50.849503
2022-09-26T04:23:20.919Z,50.849499
2022-09-26T04:24:20.914Z,50.849472
2022-09-26T04:25:20.924Z,50.849514
2022-09-26T04:26:23.724Z,50.849503
2022-09-26T04:27:20.878Z,50.849514
2022-09-26T04:28:20.869Z,50.849510
2022-09-26T04:29:20.859Z,50.849476
2022-09-26T04:30:20.860Z,50.849506
2022-09-26T04:31:20.950Z,50.849495
2022-09-26T04:32:20.876Z,50.849503
2022-09-26T04:33:20.847Z,50.849514
2022-09-26T04:34:26.258Z,50.849522
2022-09-26T04:35:21.825Z,50.849506
2022-09-26T04:36:20.819Z,50.849503
2022-09-26T04:37:20.832Z,50.849518
2022-09-26T04:38:21.337Z,50.849537
2022-09-26T04:39:20.779Z,50.849529
2022-09-26T04:40:20.839Z,50.849518
2022-09-26T04:41:20.766Z,50.849480
2022-09-26T04:42:20.764Z,50.849487
2022-09-26T04:43:20.812Z,50.849518
2022-09-26T04:44:20.786Z,50.849487
2022-09-26T04:45:20.737Z,50.849491
2022-09-26T04:46:22.343Z,50.849506
2022-09-26T04:47:20.715Z,50.849499
2022-09-26T04:48:20.706Z,50.849491
2022-09-26T04:49:20.721Z,50.849476
2022-09-26T04:50:20.730Z,50.849491
2022-09-26T04:51:20.681Z,50.849514
2022-09-26T04:52:20.682Z,50.849491
2022-09-26T04:53:20.671Z,50.849487
2022-09-26T04:54:20.704Z,50.849480
2022-09-26T04:55:20.695Z,50.849449
2022-09-26T04:56:20.633Z,50.849487
2022-09-26T04:57:20.637Z,50.849457
2022-09-26T04:58:20.622Z,50.849453
2022-09-26T04:59:20.609Z,50.849453
2022-09-26T05:00:20.626Z,50.849464
2022-09-26T05:01:20.674Z,50.849464
2022-09-26T05:02:20.641Z,50.849503
2022-09-26T05:03:20.580Z,50.849522
2022-09-26T05:04:25.214Z,50.849483
2022-09-26T05:05:21.591Z,50.849468
2022-09-26T05:06:20.571Z,50.849522
2022-09-26T05:07:20.555Z,50.849518
2022-09-26T05:08:20.530Z,50.849533
2022-09-26T05:09:20.528Z,50.849483
2022-09-26T05:10:20.524Z,50.849522
2022-09-26T05:11:20.520Z,50.849503
2022-09-26T05:12:20.729Z,50.849483
2022-09-26T05:13:20.491Z,50.849472
2022-09-26T05:14:20.484Z,50.849495
2022-09-26T05:15:20.480Z,50.849472
2022-09-26T05:16:20.518Z,50.849548
2022-09-26T05:17:20.500Z,50.849487
2022-09-26T05:18:20.483Z,50.849491
2022-09-26T05:21:32.734Z,50.849545
2022-09-26T05:22:32.702Z,50.849495
2022-09-26T05:23:32.700Z,50.849506
2022-09-26T05:24:32.683Z,50.849495
2022-09-26T05:25:32.750Z,50.849453
2022-09-26T05:26:32.684Z,50.849518
2022-09-26T05:27:32.693Z,50.849468
2022-09-26T05:28:32.677Z,50.849461
2022-09-26T05:29:32.651Z,50.849472
2022-09-26T05:30:32.660Z,50.849491
2022-09-26T05:31:32.795Z,50.849461
2022-09-26T05:32:32.667Z,50.849464
2022-09-26T05:33:32.686Z,50.849491
2022-09-26T05:34:32.623Z,50.849487
2022-09-26T05:35:32.605Z,50.849480
2022-09-26T05:36:32.604Z,50.849483
2022-09-26T05:37:32.593Z,50.849487
2022-09-26T05:38:32.671Z,50.849480
2022-09-26T05:39:32.611Z,50.849468
2022-09-26T05:40:32.626Z,50.849487
2022-09-26T05:41:32.567Z,50.849529
2022-09-26T05:42:32.595Z,50.849537
2022-09-26T05:43:32.563Z,50.849449
2022-09-26T05:44:32.557Z,50.849491
2022-09-26T05:45:32.524Z,50.849514
2022-09-26T05:46:32.614Z,50.849506
2022-09-26T05:47:32.539Z,50.849461
2022-09-26T05:48:32.507Z,50.849510
2022-09-26T05:49:32.480Z,50.849457
2022-09-26T05:50:32.531Z,50.849506
2022-09-26T05:51:32.470Z,50.849522
2022-09-26T05:52:32.468Z,50.849522
2022-09-26T05:53:32.477Z,50.849537
2022-09-26T05:54:32.458Z,50.849548
2022-09-26T05:55:32.459Z,50.849518
2022-09-26T05:56:32.486Z,50.849529
2022-09-26T05:57:32.448Z,50.849525
2022-09-26T05:58:32.489Z,50.849522
2022-09-26T05:59:33.060Z,50.849503
2022-09-26T06:00:32.435Z,50.849522
2022-09-26T06:01:32.444Z,50.849537
2022-09-26T06:02:32.474Z,50.849529
2022-09-26T06:03:32.380Z,50.849518
2022-09-26T06:04:32.396Z,50.849533
2022-09-26T06:05:32.360Z,50.849522
2022-09-26T06:06:32.392Z,50.849518
2022-09-26T06:07:32.380Z,50.849506
2022-09-26T06:08:32.357Z,50.849541
2022-09-26T06:09:32.340Z,50.849541
2022-09-26T06:10:32.377Z,50.849533
2022-09-26T06:11:32.351Z,50.849537
2022-09-26T06:12:32.502Z,50.849533
2022-09-26T06:13:32.323Z,50.849510
2022-09-26T06:14:32.294Z,50.849525
2022-09-26T06:15:32.282Z,50.849533
2022-09-26T06:16:32.342Z,50.849518
2022-09-26T06:17:32.290Z,50.849533
2022-09-26T06:18:32.279Z,50.849548
2022-09-26T06:19:32.245Z,50.849522
2022-09-26T06:20:32.245Z,50.849541
2022-09-26T06:21:32.235Z,50.849571
2022-09-26T06:22:32.361Z,50.849525
2022-09-26T06:23:32.223Z,50.849541
2022-09-26T06:24:32.289Z,50.849522
2022-09-26T06:25:32.203Z,50.849525
2022-09-26T06:26:32.231Z,50.849533
2022-09-26T06:27:33.101Z,50.849537
2022-09-26T06:28:32.175Z,50.849556
2022-09-26T06:29:32.163Z,50.849541
2022-09-26T06:30:32.186Z,50.849552
2022-09-26T06:31:32.195Z,50.849533
2022-09-26T06:32:32.142Z,50.849537
2022-09-26T06:33:33.511Z,50.849537
2022-09-26T06:34:32.155Z,50.849552
2022-09-26T06:35:32.118Z,50.849552
2022-09-26T06:36:32.160Z,50.849552
2022-09-26T06:37:32.150Z,50.849545
2022-09-26T06:38:32.120Z,50.849541
2022-09-26T06:39:32.081Z,50.849537
2022-09-26T06:40:32.159Z,50.849548
2022-09-26T06:41:32.200Z,50.849552
2022-09-26T06:42:32.071Z,50.849552
2022-09-26T06:43:32.057Z,50.849556
2022-09-26T06:44:32.040Z,50.849552
2022-09-26T06:45:32.042Z,50.849560
2022-09-26T06:46:32.092Z,50.849552
2022-09-26T06:47:32.052Z,50.849560
2022-09-26T06:48:32.160Z,50.849567
2022-09-26T06:49:32.003Z,50.849571
2022-09-26T06:50:31.993Z,50.849564
2022-09-26T06:51:32.007Z,50.849545
2022-09-26T06:52:31.979Z,50.849571
2022-09-26T06:53:31.991Z,50.849560
2022-09-26T06:54:31.989Z,50.849564
2022-09-26T06:55:31.957Z,50.849545
2022-09-26T06:56:31.976Z,50.849548
2022-09-26T06:57:32.008Z,50.849533
2022-09-26T06:58:31.951Z,50.849541
2022-09-26T06:59:31.933Z,50.849560
2022-09-26T07:00:31.982Z,50.849556
2022-09-26T07:01:32.011Z,50.849556
2022-09-26T07:02:31.899Z,50.849556
2022-09-26T07:03:31.881Z,50.849560
2022-09-26T07:04:31.898Z,50.849545
2022-09-26T07:05:31.859Z,50.849525
2022-09-26T07:06:31.857Z,50.849522
2022-09-26T07:07:31.847Z,50.849541
2022-09-26T07:09:00.526Z,50.849537
2022-09-26T07:09:32.906Z,50.849537
2022-09-26T07:10:31.832Z,50.849522
2022-09-26T07:11:41.964Z,50.849545
2022-09-26T07:12:32.814Z,50.849567
2022-09-26T07:13:31.802Z,50.849541
2022-09-26T07:14:31.788Z,50.849529
2022-09-26T07:15:31.823Z,50.849537
2022-09-26T07:16:32.033Z,50.849552
2022-09-26T07:17:31.764Z,50.849586
2022-09-26T07:18:31.751Z,50.849552
2022-09-26T07:19:31.749Z,50.849548
2022-09-26T07:20:31.741Z,50.849545
2022-09-26T07:21:31.751Z,50.849552
2022-09-26T07:22:31.731Z,50.849537
2022-09-26T07:23:31.753Z,50.849552
2022-09-26T07:24:31.709Z,50.849545
2022-09-26T07:25:31.846Z,50.849564
2022-09-26T07:26:31.695Z,50.849552
2022-09-26T07:27:31.704Z,50.849541
2022-09-26T07:28:31.687Z,50.849522
2022-09-26T07:29:31.735Z,50.849503
2022-09-26T07:30:31.774Z,50.849537
2022-09-26T07:31:31.710Z,50.849537
2022-09-26T07:32:31.646Z,50.849552
2022-09-26T07:33:31.636Z,50.849564
2022-09-26T07:34:31.630Z,50.849541
2022-09-26T07:35:31.618Z,50.849533
2022-09-26T07:36:31.622Z,50.849541
2022-09-26T07:37:31.609Z,50.849499
2022-09-26T07:38:31.587Z,50.849506
2022-09-26T07:39:31.584Z,50.849522
2022-09-26T07:40:31.645Z,50.849506
2022-09-26T07:41:31.560Z,50.849510
2022-09-26T07:42:31.657Z,50.849499
2022-09-26T07:44:04.620Z,50.849480
2022-09-26T07:45:32.702Z,50.849518
2022-09-26T07:46:31.664Z,50.849525
2022-09-26T07:47:31.512Z,50.849518
2022-09-26T07:48:31.503Z,50.849533
2022-09-26T07:49:31.565Z,50.849525
2022-09-26T07:50:31.499Z,50.849525
2022-09-26T07:51:31.499Z,50.849533
2022-09-26T07:52:31.501Z,50.849537
2022-09-26T07:53:31.471Z,50.849556
2022-09-26T07:54:32.973Z,50.849552
2022-09-26T07:55:31.482Z,50.849552
2022-09-26T07:56:31.453Z,50.849545
2022-09-26T07:57:31.466Z,50.849525
2022-09-26T07:58:31.441Z,50.849529
2022-09-26T07:59:31.415Z,50.849529
2022-09-26T08:00:31.417Z,50.849522
2022-09-26T08:01:31.479Z,50.849514
2022-09-26T08:02:31.532Z,50.849514
2022-09-26T08:03:31.443Z,50.849506
2022-09-26T08:04:31.400Z,50.849522
2022-09-26T08:05:31.443Z,50.849533
2022-09-26T08:06:31.370Z,50.849518
2022-09-26T08:07:31.466Z,50.849518
2022-09-26T08:08:31.365Z,50.849514
2022-09-26T08:09:31.458Z,50.849525
2022-09-26T08:10:31.342Z,50.849533
2022-09-26T08:11:31.396Z,50.849529
2022-09-26T08:12:31.318Z,50.849537
2022-09-26T08:13:31.312Z,50.849529
2022-09-26T08:14:31.339Z,50.849506
2022-09-26T08:15:31.293Z,50.849518
2022-09-26T08:16:31.339Z,50.849495
2022-09-26T08:17:31.326Z,50.849556
2022-09-26T08:18:31.272Z,50.849533
2022-09-26T08:19:31.284Z,50.849552
2022-09-26T08:20:32.313Z,50.849560
2022-09-26T08:21:31.261Z,50.849564
2022-09-26T08:22:31.237Z,50.849522
2022-09-26T08:23:31.238Z,50.849480
2022-09-26T08:24:31.234Z,50.849548
2022-09-26T08:25:31.245Z,50.849545
2022-09-26T08:26:31.200Z,50.849495
2022-09-26T08:27:31.203Z,50.849564
2022-09-26T08:28:31.183Z,50.849529
2022-09-26T08:29:31.188Z,50.849487
2022-09-26T08:30:31.169Z,50.849537
2022-09-26T08:31:31.296Z,50.849506
2022-09-26T08:32:31.169Z,50.849514
2022-09-26T08:33:31.197Z,50.849560
2022-09-26T08:34:31.145Z,50.849583
2022-09-26T08:35:31.125Z,50.849533
2022-09-26T08:36:31.120Z,50.849537
2022-09-26T08:37:31.213Z,50.849491
2022-09-26T08:38:31.122Z,50.849548
2022-09-26T08:39:33.403Z,50.849529
2022-09-26T08:40:31.175Z,50.849541
2022-09-26T08:41:31.091Z,50.849617
2022-09-26T08:42:31.078Z,50.849556
2022-09-26T08:43:31.119Z,50.849514
2022-09-26T08:44:31.052Z,50.849537
2022-09-26T08:45:31.050Z,50.849533
2022-09-26T08:46:31.096Z,50.849567
2022-09-26T08:47:31.071Z,50.849548
2022-09-26T08:48:31.031Z,50.849552
2022-09-26T08:49:31.044Z,50.849537
2022-09-26T08:50:31.020Z,50.849552
2022-09-26T08:51:31.008Z,50.849541
2022-09-26T08:52:30.986Z,50.849533
2022-09-26T08:53:31.008Z,50.849522
2022-09-26T08:54:31.016Z,50.849529
2022-09-26T08:55:30.992Z,50.849518
2022-09-26T08:56:30.963Z,50.849529
2022-09-26T08:57:30.975Z,50.849548
2022-09-26T08:58:30.955Z,50.849556
2022-09-26T08:59:31.000Z,50.849548
2022-09-26T09:00:30.957Z,50.849537
2022-09-26T09:01:31.014Z,50.849529
2022-09-26T09:02:30.980Z,50.849514
2022-09-26T09:03:30.911Z,50.849506
2022-09-26T09:04:30.900Z,50.849537
2022-09-26T09:05:30.915Z,50.849579
2022-09-26T09:06:30.902Z,50.849564
2022-09-26T09:07:30.974Z,50.849533
2022-09-26T09:08:30.859Z,50.849556
2022-09-26T09:09:30.851Z,50.849529
2022-09-26T09:10:30.845Z,50.849529
2022-09-26T09:11:30.872Z,50.849548
2022-09-26T09:12:32.387Z,50.849564
2022-09-26T09:13:30.830Z,50.849548
2022-09-26T09:14:30.815Z,50.849556
2022-09-26T09:15:30.805Z,50.849537
2022-09-26T09:16:30.874Z,50.849541
2022-09-26T09:17:30.841Z,50.849548
2022-09-26T09:18:30.809Z,50.849560
2022-09-26T09:19:30.782Z,50.849564
2022-09-26T09:20:30.773Z,50.849571
2022-09-26T09:21:30.969Z,50.849560
2022-09-26T09:22:30.761Z,50.849541
2022-09-26T09:23:30.768Z,50.849537
2022-09-26T09:24:30.761Z,50.849556
2022-09-26T09:25:30.743Z,50.849545
2022-09-26T09:28:31.740Z,50.849564
2022-09-26T09:29:30.709Z,50.849564
2022-09-26T09:30:30.720Z,50.849560
2022-09-26T09:31:30.804Z,50.849560
2022-09-26T09:32:30.678Z,50.849556
2022-09-26T09:33:30.668Z,50.849560
2022-09-26T09:34:30.671Z,50.849537
2022-09-26T09:35:30.776Z,50.849545
2022-09-26T09:36:30.665Z,50.849533
2022-09-26T09:37:30.641Z,50.849556
2022-09-26T09:38:30.619Z,50.849567
2022-09-26T09:39:30.618Z,50.849552
2022-09-26T09:40:30.651Z,50.849583
2022-09-26T09:41:30.662Z,50.849560
2022-09-26T09:42:30.586Z,50.849537
2022-09-26T09:43:30.570Z,50.849541
2022-09-26T09:44:30.716Z,50.849545
2022-09-26T09:45:30.564Z,50.849525
2022-09-26T09:46:30.616Z,50.849525
2022-09-26T09:47:30.572Z,50.849541
2022-09-26T09:48:30.537Z,50.849533
2022-09-26T09:49:30.563Z,50.849541
2022-09-26T09:50:30.523Z,50.849556
2022-09-26T09:51:33.191Z,50.849548
2022-09-26T09:52:31.560Z,50.849529
2022-09-26T09:53:30.498Z,50.849533
2022-09-26T09:54:30.477Z,50.849533
2022-09-26T09:55:30.481Z,50.849545
2022-09-26T09:56:30.491Z,50.849556
2022-09-26T09:57:30.469Z,50.849537
2022-09-26T09:58:30.474Z,50.849510
2022-09-26T09:59:30.457Z,50.849483
2022-09-26T10:00:30.454Z,50.849514
2022-09-26T10:01:30.438Z,50.849548
2022-09-26T10:02:30.525Z,50.849548
2022-09-26T10:03:30.420Z,50.849545
2022-09-26T10:04:30.406Z,50.849537
2022-09-26T10:05:30.466Z,50.849529
2022-09-26T10:06:44.272Z,50.849503
2022-09-26T10:07:31.517Z,50.849545
2022-09-26T10:08:30.374Z,50.849556
2022-09-26T10:09:39.353Z,50.849552
2022-09-26T10:10:31.400Z,50.849537
2022-09-26T10:11:30.368Z,50.849510
2022-09-26T10:12:30.359Z,50.849510
2022-09-26T10:13:30.376Z,50.849545
2022-09-26T10:14:30.394Z,50.849552
2022-09-26T10:15:30.353Z,50.849537
2022-09-26T10:16:30.386Z,50.849541
2022-09-26T10:17:30.318Z,50.849495
2022-09-26T10:18:30.311Z,50.849499
2022-09-26T10:19:30.313Z,50.849491
2022-09-26T10:20:30.283Z,50.849522
2022-09-26T10:21:30.303Z,50.849518
2022-09-26T10:22:30.275Z,50.849537
2022-09-26T10:23:30.335Z,50.849522
2022-09-26T10:24:30.252Z,50.849533
2022-09-26T10:25:30.249Z,50.849522
2022-09-26T10:26:31.531Z,50.849522
2022-09-26T10:27:30.253Z,50.849525
2022-09-26T10:28:30.244Z,50.849522
2022-09-26T10:29:30.229Z,50.849525
2022-09-26T10:30:30.234Z,50.849522
2022-09-26T10:31:30.280Z,50.849495
2022-09-26T10:32:30.221Z,50.849522
2022-09-26T10:33:30.182Z,50.849522
2022-09-26T10:34:30.180Z,50.849495
2022-09-26T10:35:30.209Z,50.849510
2022-09-26T10:36:30.155Z,50.849499
2022-09-26T10:37:30.156Z,50.849510
2022-09-26T10:38:30.169Z,50.849533
2022-09-26T10:39:30.136Z,50.849518
2022-09-26T10:40:30.190Z,50.849510
2022-09-26T10:41:30.143Z,50.849529
2022-09-26T10:42:32.472Z,50.849529
2022-09-26T10:43:30.101Z,50.849545
2022-09-26T10:44:30.284Z,50.849541
2022-09-26T10:45:30.096Z,50.849518
2022-09-26T10:46:30.144Z,50.849525
2022-09-26T10:47:30.076Z,50.849525
2022-09-26T10:48:30.069Z,50.849541
2022-09-26T10:49:30.121Z,50.849518
2022-09-26T10:50:30.055Z,50.849529
2022-09-26T10:51:30.049Z,50.849541
2022-09-26T10:52:30.044Z,50.849571
2022-09-26T10:53:30.042Z,50.849548
2022-09-26T10:54:30.008Z,50.849548
2022-09-26T10:55:30.056Z,50.849533
2022-09-26T10:56:30.003Z,50.849533
2022-09-26T10:57:30.700Z,50.849545
2022-09-26T10:58:30.161Z,50.849537
2022-09-26T10:59:30.042Z,50.849525
2022-09-26T11:00:29.960Z,50.849545
2022-09-26T11:01:30.042Z,50.849525
2022-09-26T11:02:29.953Z,50.849518
2022-09-26T11:03:29.947Z,50.849514
2022-09-26T11:04:29.952Z,50.849503
2022-09-26T11:05:29.932Z,50.849510
2022-09-26T11:06:29.940Z,50.849514
2022-09-26T11:07:29.909Z,50.849533
2022-09-26T11:08:29.906Z,50.849529
2022-09-26T11:09:29.897Z,50.849525
2022-09-26T11:10:29.910Z,50.849503
2022-09-26T11:11:29.981Z,50.849503
2022-09-26T11:12:29.872Z,50.849506
2022-09-26T11:13:29.858Z,50.849514
2022-09-26T11:14:29.879Z,50.849503
2022-09-26T11:15:29.959Z,50.849499
2022-09-26T11:16:33.654Z,50.849514
2022-09-26T11:17:30.831Z,50.849525
2022-09-26T11:18:29.831Z,50.849541
2022-09-26T11:19:29.802Z,50.849541
2022-09-26T11:20:37.311Z,50.849514
2022-09-26T11:21:29.847Z,50.849514
2022-09-26T11:22:29.815Z,50.849518
2022-09-26T11:23:29.783Z,50.849503
2022-09-26T11:26:56.792Z,50.849499
2022-09-26T11:27:56.811Z,50.849495
2022-09-26T11:31:23.841Z,50.849487
2022-09-26T11:32:23.795Z,50.849480
2022-09-26T11:33:44.800Z,50.849487
2022-09-26T11:34:23.775Z,50.849514